sensor_id;sensor_type;location;lat;lon;timestamp;P1;durP1;ratioP1;P2;durP2;ratioP2
57107;SDS011;42987;52.916;6.542;2023-06-22T00:00:48;28.52;;;25.83;;
57107;SDS011;42987;52.916;6.542;2023-06-22T00:03:15;24.73;;;22.45;;
57107;SDS011;42987;52.916;6.542;2023-06-22T00:05:44;29.80;;;26.88;;
57107;SDS011;42987;52.916;6.542;2023-06-22T00:10:40;28.02;;;25.25;;
57107;SDS011;42987;52.916;6.542;2023-06-22T00:13:09;31.20;;;28.05;;
57107;SDS011;42987;52.916;6.542;2023-06-22T00:15:39;25.77;;;23.27;;
57107;SDS011;42987;52.916;6.542;2023-06-22T00:18:07;25.92;;;23.35;;
57107;SDS011;42987;52.916;6.542;2023-06-22T00:20:34;29.08;;;26.23;;
57107;SDS011;42987;52.916;6.542;2023-06-22T00:23:04;24.67;;;22.38;;
57107;SDS011;42987;52.916;6.542;2023-06-22T00:25:34;25.73;;;23.23;;
57107;SDS011;42987;52.916;6.542;2023-06-22T00:28:01;30.65;;;27.75;;
57107;SDS011;42987;52.916;6.542;2023-06-22T00:30:28;39.20;;;34.15;;
57107;SDS011;42987;52.916;6.542;2023-06-22T00:32:55;41.10;;;37.05;;
57107;SDS011;42987;52.916;6.542;2023-06-22T00:35:21;35.95;;;32.47;;
57107;SDS011;42987;52.916;6.542;2023-06-22T00:37:50;31.58;;;28.52;;
57107;SDS011;42987;52.916;6.542;2023-06-22T00:40:16;32.80;;;29.77;;
57107;SDS011;42987;52.916;6.542;2023-06-22T00:42:46;34.05;;;30.85;;
57107;SDS011;42987;52.916;6.542;2023-06-22T00:45:12;31.17;;;28.17;;
57107;SDS011;42987;52.916;6.542;2023-06-22T00:47:38;40.30;;;36.28;;
57107;SDS011;42987;52.916;6.542;2023-06-22T00:50:05;35.53;;;32.22;;
57107;SDS011;42987;52.916;6.542;2023-06-22T00:52:36;41.17;;;37.00;;
57107;SDS011;42987;52.916;6.542;2023-06-22T00:55:02;40.70;;;36.70;;
57107;SDS011;42987;52.916;6.542;2023-06-22T00:57:28;33.40;;;30.30;;
57107;SDS011;42987;52.916;6.542;2023-06-22T00:59:55;45.53;;;40.50;;
57107;SDS011;42987;52.916;6.542;2023-06-22T01:02:21;34.30;;;31.13;;
57107;SDS011;42987;52.916;6.542;2023-06-22T01:04:47;37.70;;;34.20;;
57107;SDS011;42987;52.916;6.542;2023-06-22T01:12:51;29.42;;;26.70;;
57107;SDS011;42987;52.916;6.542;2023-06-22T01:15:21;27.27;;;24.80;;
57107;SDS011;42987;52.916;6.542;2023-06-22T01:17:53;21.95;;;20.05;;
57107;SDS011;42987;52.916;6.542;2023-06-22T01:20:21;25.88;;;23.60;;
57107;SDS011;42987;52.916;6.542;2023-06-22T01:23:10;28.05;;;25.55;;
57107;SDS011;42987;52.916;6.542;2023-06-22T01:30:59;44.40;;;39.90;;
57107;SDS011;42987;52.916;6.542;2023-06-22T01:33:34;33.40;;;30.10;;
57107;SDS011;42987;52.916;6.542;2023-06-22T01:36:03;35.15;;;31.85;;
57107;SDS011;42987;52.916;6.542;2023-06-22T01:38:30;37.17;;;33.67;;
57107;SDS011;42987;52.916;6.542;2023-06-22T01:40:57;37.45;;;34.15;;
57107;SDS011;42987;52.916;6.542;2023-06-22T01:43:25;36.97;;;33.47;;
57107;SDS011;42987;52.916;6.542;2023-06-22T01:45:51;36.85;;;33.47;;
57107;SDS011;42987;52.916;6.542;2023-06-22T01:48:22;32.08;;;29.23;;
57107;SDS011;42987;52.916;6.542;2023-06-22T01:50:49;29.85;;;27.25;;
57107;SDS011;42987;52.916;6.542;2023-06-22T01:53:14;29.15;;;26.75;;
57107;SDS011;42987;52.916;6.542;2023-06-22T01:55:40;28.73;;;26.17;;
57107;SDS011;42987;52.916;6.542;2023-06-22T01:58:09;29.75;;;27.15;;
57107;SDS011;42987;52.916;6.542;2023-06-22T02:00:37;30.85;;;28.15;;
57107;SDS011;42987;52.916;6.542;2023-06-22T02:03:14;29.93;;;27.43;;
57107;SDS011;42987;52.916;6.542;2023-06-22T02:08:49;32.40;;;29.58;;
57107;SDS011;42987;52.916;6.542;2023-06-22T02:11:19;28.60;;;26.23;;
57107;SDS011;42987;52.916;6.542;2023-06-22T02:13:45;31.25;;;28.75;;
57107;SDS011;42987;52.916;6.542;2023-06-22T02:16:14;31.30;;;28.65;;
57107;SDS011;42987;52.916;6.542;2023-06-22T02:18:46;31.35;;;28.75;;
57107;SDS011;42987;52.916;6.542;2023-06-22T02:21:12;36.08;;;33.08;;
57107;SDS011;42987;52.916;6.542;2023-06-22T02:23:38;30.83;;;28.17;;
57107;SDS011;42987;52.916;6.542;2023-06-22T02:26:04;34.22;;;31.35;;
57107;SDS011;42987;52.916;6.542;2023-06-22T02:28:30;32.95;;;30.13;;
57107;SDS011;42987;52.916;6.542;2023-06-22T02:30:56;41.38;;;37.45;;
57107;SDS011;42987;52.916;6.542;2023-06-22T02:33:21;29.02;;;26.70;;
57107;SDS011;42987;52.916;6.542;2023-06-22T02:35:47;31.65;;;29.00;;
57107;SDS011;42987;52.916;6.542;2023-06-22T02:38:14;33.72;;;30.92;;
57107;SDS011;42987;52.916;6.542;2023-06-22T02:40:40;30.05;;;27.48;;
57107;SDS011;42987;52.916;6.542;2023-06-22T02:43:07;31.70;;;29.20;;
57107;SDS011;42987;52.916;6.542;2023-06-22T02:45:32;26.88;;;24.77;;
57107;SDS011;42987;52.916;6.542;2023-06-22T02:48:01;28.83;;;26.52;;
57107;SDS011;42987;52.916;6.542;2023-06-22T02:50:27;27.08;;;24.98;;
57107;SDS011;42987;52.916;6.542;2023-06-22T02:52:53;25.95;;;23.75;;
57107;SDS011;42987;52.916;6.542;2023-06-22T02:55:19;31.40;;;28.85;;
57107;SDS011;42987;52.916;6.542;2023-06-22T02:57:45;29.52;;;27.02;;
57107;SDS011;42987;52.916;6.542;2023-06-22T03:00:13;25.65;;;23.52;;
57107;SDS011;42987;52.916;6.542;2023-06-22T03:02:46;27.85;;;25.52;;
57107;SDS011;42987;52.916;6.542;2023-06-22T03:05:16;29.52;;;27.02;;
57107;SDS011;42987;52.916;6.542;2023-06-22T03:10:09;32.53;;;29.83;;
57107;SDS011;42987;52.916;6.542;2023-06-22T03:12:39;28.33;;;25.92;;
57107;SDS011;42987;52.916;6.542;2023-06-22T03:15:06;29.23;;;26.75;;
57107;SDS011;42987;52.916;6.542;2023-06-22T03:17:33;33.88;;;31.08;;
57107;SDS011;42987;52.916;6.542;2023-06-22T03:20:00;31.92;;;29.20;;
57107;SDS011;42987;52.916;6.542;2023-06-22T03:22:41;35.53;;;32.33;;
57107;SDS011;42987;52.916;6.542;2023-06-22T03:25:08;39.55;;;35.85;;
57107;SDS011;42987;52.916;6.542;2023-06-22T03:27:40;34.42;;;31.63;;
57107;SDS011;42987;52.916;6.542;2023-06-22T03:30:10;38.08;;;34.88;;
57107;SDS011;42987;52.916;6.542;2023-06-22T03:32:36;36.78;;;33.67;;
57107;SDS011;42987;52.916;6.542;2023-06-22T03:35:06;40.30;;;36.75;;
57107;SDS011;42987;52.916;6.542;2023-06-22T03:37:32;42.83;;;38.87;;
57107;SDS011;42987;52.916;6.542;2023-06-22T03:39:58;38.67;;;35.22;;
57107;SDS011;42987;52.916;6.542;2023-06-22T03:42:24;37.85;;;34.45;;
57107;SDS011;42987;52.916;6.542;2023-06-22T03:44:51;37.75;;;34.15;;
57107;SDS011;42987;52.916;6.542;2023-06-22T03:47:17;37.28;;;34.08;;
57107;SDS011;42987;52.916;6.542;2023-06-22T03:49:43;37.25;;;33.88;;
57107;SDS011;42987;52.916;6.542;2023-06-22T03:52:08;37.25;;;34.05;;
57107;SDS011;42987;52.916;6.542;2023-06-22T03:54:35;37.22;;;34.03;;
57107;SDS011;42987;52.916;6.542;2023-06-22T03:57:01;36.03;;;33.17;;
57107;SDS011;42987;52.916;6.542;2023-06-22T03:59:27;35.63;;;32.53;;
57107;SDS011;42987;52.916;6.542;2023-06-22T04:01:53;33.60;;;30.80;;
57107;SDS011;42987;52.916;6.542;2023-06-22T04:04:20;39.30;;;35.95;;
57107;SDS011;42987;52.916;6.542;2023-06-22T04:06:46;44.88;;;40.80;;
57107;SDS011;42987;52.916;6.542;2023-06-22T04:09:11;43.08;;;38.85;;
57107;SDS011;42987;52.916;6.542;2023-06-22T04:11:37;46.38;;;42.15;;
57107;SDS011;42987;52.916;6.542;2023-06-22T04:14:03;42.88;;;39.08;;
57107;SDS011;42987;52.916;6.542;2023-06-22T04:16:29;47.13;;;42.92;;
57107;SDS011;42987;52.916;6.542;2023-06-22T04:18:54;46.15;;;42.05;;
57107;SDS011;42987;52.916;6.542;2023-06-22T04:21:20;46.45;;;42.22;;
57107;SDS011;42987;52.916;6.542;2023-06-22T04:23:46;56.17;;;46.55;;
57107;SDS011;42987;52.916;6.542;2023-06-22T04:26:12;49.95;;;43.08;;
57107;SDS011;42987;52.916;6.542;2023-06-22T04:28:40;56.90;;;41.50;;
57107;SDS011;42987;52.916;6.542;2023-06-22T04:31:08;46.00;;;41.37;;
57107;SDS011;42987;52.916;6.542;2023-06-22T04:33:34;41.45;;;38.05;;
57107;SDS011;42987;52.916;6.542;2023-06-22T04:36:00;47.38;;;43.40;;
57107;SDS011;42987;52.916;6.542;2023-06-22T04:38:26;43.72;;;40.20;;
57107;SDS011;42987;52.916;6.542;2023-06-22T04:40:52;42.95;;;39.33;;
57107;SDS011;42987;52.916;6.542;2023-06-22T04:43:19;46.00;;;42.20;;
57107;SDS011;42987;52.916;6.542;2023-06-22T04:45:45;47.90;;;43.97;;
57107;SDS011;42987;52.916;6.542;2023-06-22T04:48:11;43.75;;;40.15;;
57107;SDS011;42987;52.916;6.542;2023-06-22T04:53:09;46.78;;;42.80;;
57107;SDS011;42987;52.916;6.542;2023-06-22T04:55:37;45.08;;;41.20;;
57107;SDS011;42987;52.916;6.542;2023-06-22T04:58:06;50.05;;;45.63;;
57107;SDS011;42987;52.916;6.542;2023-06-22T05:00:32;44.05;;;40.22;;
57107;SDS011;42987;52.916;6.542;2023-06-22T05:03:01;47.13;;;43.13;;
57107;SDS011;42987;52.916;6.542;2023-06-22T05:05:28;47.50;;;43.42;;
57107;SDS011;42987;52.916;6.542;2023-06-22T05:07:55;54.30;;;49.53;;
57107;SDS011;42987;52.916;6.542;2023-06-22T05:10:24;50.88;;;46.33;;
57107;SDS011;42987;52.916;6.542;2023-06-22T05:12:51;54.30;;;49.20;;
57107;SDS011;42987;52.916;6.542;2023-06-22T05:15:16;54.25;;;49.35;;
57107;SDS011;42987;52.916;6.542;2023-06-22T05:17:44;54.63;;;49.47;;
57107;SDS011;42987;52.916;6.542;2023-06-22T05:20:10;55.55;;;50.53;;
57107;SDS011;42987;52.916;6.542;2023-06-22T05:25:09;52.85;;;47.95;;
57107;SDS011;42987;52.916;6.542;2023-06-22T05:27:36;57.53;;;52.20;;
57107;SDS011;42987;52.916;6.542;2023-06-22T05:30:05;57.85;;;52.28;;
57107;SDS011;42987;52.916;6.542;2023-06-22T05:32:32;53.50;;;48.42;;
57107;SDS011;42987;52.916;6.542;2023-06-22T05:34:58;52.10;;;47.08;;
57107;SDS011;42987;52.916;6.542;2023-06-22T05:37:24;53.65;;;48.28;;
57107;SDS011;42987;52.916;6.542;2023-06-22T05:39:51;52.55;;;47.55;;
57107;SDS011;42987;52.916;6.542;2023-06-22T05:42:17;53.28;;;48.17;;
57107;SDS011;42987;52.916;6.542;2023-06-22T05:44:43;51.75;;;46.67;;
57107;SDS011;42987;52.916;6.542;2023-06-22T05:47:09;47.85;;;43.35;;
57107;SDS011;42987;52.916;6.542;2023-06-22T05:49:34;53.95;;;48.88;;
57107;SDS011;42987;52.916;6.542;2023-06-22T05:52:00;51.30;;;46.40;;
57107;SDS011;42987;52.916;6.542;2023-06-22T05:54:29;53.42;;;48.60;;
57107;SDS011;42987;52.916;6.542;2023-06-22T05:56:55;51.67;;;46.70;;
57107;SDS011;42987;52.916;6.542;2023-06-22T05:59:21;50.65;;;46.05;;
57107;SDS011;42987;52.916;6.542;2023-06-22T06:01:47;50.10;;;45.13;;
57107;SDS011;42987;52.916;6.542;2023-06-22T06:04:19;50.65;;;45.67;;
57107;SDS011;42987;52.916;6.542;2023-06-22T06:06:45;47.67;;;43.20;;
57107;SDS011;42987;52.916;6.542;2023-06-22T06:09:12;44.80;;;40.65;;
57107;SDS011;42987;52.916;6.542;2023-06-22T06:11:39;45.55;;;41.33;;
57107;SDS011;42987;52.916;6.542;2023-06-22T06:14:05;46.78;;;42.20;;
57107;SDS011;42987;52.916;6.542;2023-06-22T06:16:31;44.05;;;40.05;;
57107;SDS011;42987;52.916;6.542;2023-06-22T06:18:57;45.75;;;41.50;;
57107;SDS011;42987;52.916;6.542;2023-06-22T06:21:23;44.42;;;40.33;;
57107;SDS011;42987;52.916;6.542;2023-06-22T06:23:49;45.40;;;41.03;;
57107;SDS011;42987;52.916;6.542;2023-06-22T06:26:15;41.97;;;37.90;;
57107;SDS011;42987;52.916;6.542;2023-06-22T06:28:42;39.50;;;35.92;;
57107;SDS011;42987;52.916;6.542;2023-06-22T06:31:08;39.08;;;35.38;;
57107;SDS011;42987;52.916;6.542;2023-06-22T06:33:35;35.03;;;31.77;;
57107;SDS011;42987;52.916;6.542;2023-06-22T06:36:01;33.65;;;30.38;;
57107;SDS011;42987;52.916;6.542;2023-06-22T06:38:29;33.30;;;30.20;;
57107;SDS011;42987;52.916;6.542;2023-06-22T06:40:58;28.45;;;25.75;;
57107;SDS011;42987;52.916;6.542;2023-06-22T06:43:24;28.50;;;25.77;;
57107;SDS011;42987;52.916;6.542;2023-06-22T06:45:50;28.55;;;26.02;;
57107;SDS011;42987;52.916;6.542;2023-06-22T06:48:16;28.13;;;25.60;;
57107;SDS011;42987;52.916;6.542;2023-06-22T06:50:42;26.85;;;24.35;;
57107;SDS011;42987;52.916;6.542;2023-06-22T06:53:09;24.60;;;22.30;;
57107;SDS011;42987;52.916;6.542;2023-06-22T06:55:35;22.63;;;20.45;;
57107;SDS011;42987;52.916;6.542;2023-06-22T06:58:01;19.40;;;17.77;;
57107;SDS011;42987;52.916;6.542;2023-06-22T07:00:29;20.33;;;18.52;;
57107;SDS011;42987;52.916;6.542;2023-06-22T07:02:55;18.90;;;17.08;;
57107;SDS011;42987;52.916;6.542;2023-06-22T07:05:20;19.30;;;17.60;;
57107;SDS011;42987;52.916;6.542;2023-06-22T07:07:46;17.20;;;15.60;;
57107;SDS011;42987;52.916;6.542;2023-06-22T07:10:15;17.90;;;16.20;;
57107;SDS011;42987;52.916;6.542;2023-06-22T07:12:41;16.88;;;15.20;;
57107;SDS011;42987;52.916;6.542;2023-06-22T07:15:09;16.33;;;14.90;;
57107;SDS011;42987;52.916;6.542;2023-06-22T07:17:39;17.00;;;15.10;;
57107;SDS011;42987;52.916;6.542;2023-06-22T07:20:08;16.38;;;14.70;;
57107;SDS011;42987;52.916;6.542;2023-06-22T07:22:42;15.90;;;14.35;;
57107;SDS011;42987;52.916;6.542;2023-06-22T07:25:09;15.48;;;13.98;;
57107;SDS011;42987;52.916;6.542;2023-06-22T07:27:39;15.05;;;13.75;;
57107;SDS011;42987;52.916;6.542;2023-06-22T07:30:08;15.48;;;14.07;;
57107;SDS011;42987;52.916;6.542;2023-06-22T07:32:35;15.32;;;13.52;;
57107;SDS011;42987;52.916;6.542;2023-06-22T07:35:01;15.23;;;13.82;;
57107;SDS011;42987;52.916;6.542;2023-06-22T07:37:28;15.50;;;13.88;;
57107;SDS011;42987;52.916;6.542;2023-06-22T07:39:54;15.05;;;13.55;;
57107;SDS011;42987;52.916;6.542;2023-06-22T07:42:24;11.77;;;10.68;;
57107;SDS011;42987;52.916;6.542;2023-06-22T07:44:50;11.95;;;10.75;;
57107;SDS011;42987;52.916;6.542;2023-06-22T07:47:16;12.13;;;10.43;;
57107;SDS011;42987;52.916;6.542;2023-06-22T07:49:50;12.65;;;11.48;;
57107;SDS011;42987;52.916;6.542;2023-06-22T07:52:16;13.35;;;10.80;;
57107;SDS011;42987;52.916;6.542;2023-06-22T07:54:42;10.05;;;9.00;;
57107;SDS011;42987;52.916;6.542;2023-06-22T07:57:08;11.05;;;9.95;;
57107;SDS011;42987;52.916;6.542;2023-06-22T07:59:34;9.43;;;8.40;;
57107;SDS011;42987;52.916;6.542;2023-06-22T08:01:59;11.38;;;10.27;;
57107;SDS011;42987;52.916;6.542;2023-06-22T08:04:28;9.55;;;8.38;;
57107;SDS011;42987;52.916;6.542;2023-06-22T08:06:54;9.50;;;7.30;;
57107;SDS011;42987;52.916;6.542;2023-06-22T08:09:19;9.75;;;8.18;;
57107;SDS011;42987;52.916;6.542;2023-06-22T08:11:45;9.13;;;7.90;;
57107;SDS011;42987;52.916;6.542;2023-06-22T08:14:12;10.25;;;9.18;;
57107;SDS011;42987;52.916;6.542;2023-06-22T08:16:38;10.35;;;9.10;;
57107;SDS011;42987;52.916;6.542;2023-06-22T08:19:04;10.45;;;9.35;;
57107;SDS011;42987;52.916;6.542;2023-06-22T08:21:30;11.27;;;10.18;;
57107;SDS011;42987;52.916;6.542;2023-06-22T08:23:55;12.32;;;11.07;;
57107;SDS011;42987;52.916;6.542;2023-06-22T08:26:21;10.77;;;9.68;;
57107;SDS011;42987;52.916;6.542;2023-06-22T08:28:47;9.38;;;8.40;;
57107;SDS011;42987;52.916;6.542;2023-06-22T08:31:12;10.13;;;9.13;;
57107;SDS011;42987;52.916;6.542;2023-06-22T08:33:39;10.43;;;9.32;;
57107;SDS011;42987;52.916;6.542;2023-06-22T08:36:05;10.30;;;9.00;;
57107;SDS011;42987;52.916;6.542;2023-06-22T08:38:33;10.18;;;8.90;;
57107;SDS011;42987;52.916;6.542;2023-06-22T08:40:59;14.15;;;11.00;;
57107;SDS011;42987;52.916;6.542;2023-06-22T08:43:26;12.35;;;10.10;;
57107;SDS011;42987;52.916;6.542;2023-06-22T08:45:52;12.85;;;10.27;;
57107;SDS011;42987;52.916;6.542;2023-06-22T08:48:17;10.18;;;9.10;;
57107;SDS011;42987;52.916;6.542;2023-06-22T08:50:43;12.93;;;11.35;;
57107;SDS011;42987;52.916;6.542;2023-06-22T08:53:09;10.23;;;9.23;;
57107;SDS011;42987;52.916;6.542;2023-06-22T08:55:35;12.85;;;10.85;;
57107;SDS011;42987;52.916;6.542;2023-06-22T08:58:00;12.60;;;9.98;;
57107;SDS011;42987;52.916;6.542;2023-06-22T09:00:26;12.23;;;9.77;;
57107;SDS011;42987;52.916;6.542;2023-06-22T09:02:54;10.23;;;8.93;;
57107;SDS011;42987;52.916;6.542;2023-06-22T09:05:23;13.60;;;10.57;;
57107;SDS011;42987;52.916;6.542;2023-06-22T09:07:51;9.20;;;8.23;;
57107;SDS011;42987;52.916;6.542;2023-06-22T09:10:17;11.10;;;9.48;;
57107;SDS011;42987;52.916;6.542;2023-06-22T09:12:43;10.95;;;9.85;;
57107;SDS011;42987;52.916;6.542;2023-06-22T09:15:09;12.25;;;9.52;;
57107;SDS011;42987;52.916;6.542;2023-06-22T09:17:35;11.38;;;10.18;;
57107;SDS011;42987;52.916;6.542;2023-06-22T09:20:02;11.00;;;9.88;;
57107;SDS011;42987;52.916;6.542;2023-06-22T09:22:31;12.50;;;10.05;;
57107;SDS011;42987;52.916;6.542;2023-06-22T09:24:57;11.82;;;10.65;;
57107;SDS011;42987;52.916;6.542;2023-06-22T09:27:24;11.60;;;9.88;;
57107;SDS011;42987;52.916;6.542;2023-06-22T09:29:50;11.23;;;10.02;;
57107;SDS011;42987;52.916;6.542;2023-06-22T09:32:16;11.18;;;9.98;;
57107;SDS011;42987;52.916;6.542;2023-06-22T09:34:42;11.55;;;10.13;;
57107;SDS011;42987;52.916;6.542;2023-06-22T09:37:08;12.30;;;11.00;;
57107;SDS011;42987;52.916;6.542;2023-06-22T09:39:33;13.15;;;10.70;;
57107;SDS011;42987;52.916;6.542;2023-06-22T09:41:59;11.65;;;10.43;;
57107;SDS011;42987;52.916;6.542;2023-06-22T09:44:25;11.98;;;9.43;;
57107;SDS011;42987;52.916;6.542;2023-06-22T09:46:51;10.80;;;9.70;;
57107;SDS011;42987;52.916;6.542;2023-06-22T09:49:18;12.02;;;10.25;;
57107;SDS011;42987;52.916;6.542;2023-06-22T09:51:43;12.07;;;10.88;;
57107;SDS011;42987;52.916;6.542;2023-06-22T09:54:09;12.45;;;11.20;;
57107;SDS011;42987;52.916;6.542;2023-06-22T09:56:35;12.10;;;10.82;;
57107;SDS011;42987;52.916;6.542;2023-06-22T09:59:02;9.95;;;8.75;;
57107;SDS011;42987;52.916;6.542;2023-06-22T10:01:28;11.13;;;9.93;;
57107;SDS011;42987;52.916;6.542;2023-06-22T10:03:55;10.27;;;8.57;;
57107;SDS011;42987;52.916;6.542;2023-06-22T10:06:21;10.65;;;9.55;;
57107;SDS011;42987;52.916;6.542;2023-06-22T10:08:47;10.40;;;9.30;;
57107;SDS011;42987;52.916;6.542;2023-06-22T10:11:13;10.20;;;9.20;;
57107;SDS011;42987;52.916;6.542;2023-06-22T10:13:39;12.27;;;9.32;;
57107;SDS011;42987;52.916;6.542;2023-06-22T10:16:05;12.20;;;10.07;;
57107;SDS011;42987;52.916;6.542;2023-06-22T10:18:32;10.93;;;9.32;;
57107;SDS011;42987;52.916;6.542;2023-06-22T10:20:57;11.57;;;9.55;;
57107;SDS011;42987;52.916;6.542;2023-06-22T10:23:23;10.43;;;9.30;;
57107;SDS011;42987;52.916;6.542;2023-06-22T10:25:49;9.80;;;8.90;;
57107;SDS011;42987;52.916;6.542;2023-06-22T10:28:15;11.93;;;10.52;;
57107;SDS011;42987;52.916;6.542;2023-06-22T10:30:44;10.30;;;9.30;;
57107;SDS011;42987;52.916;6.542;2023-06-22T10:33:10;11.13;;;8.30;;
57107;SDS011;42987;52.916;6.542;2023-06-22T10:35:39;11.30;;;10.15;;
57107;SDS011;42987;52.916;6.542;2023-06-22T10:38:05;12.52;;;9.18;;
57107;SDS011;42987;52.916;6.542;2023-06-22T10:40:31;15.02;;;9.38;;
57107;SDS011;42987;52.916;6.542;2023-06-22T10:42:57;9.02;;;8.10;;
57107;SDS011;42987;52.916;6.542;2023-06-22T10:45:23;9.32;;;8.15;;
57107;SDS011;42987;52.916;6.542;2023-06-22T10:47:49;11.38;;;9.07;;
57107;SDS011;42987;52.916;6.542;2023-06-22T10:50:15;9.05;;;8.15;;
57107;SDS011;42987;52.916;6.542;2023-06-22T10:52:41;11.43;;;10.23;;
57107;SDS011;42987;52.916;6.542;2023-06-22T10:55:07;10.48;;;9.43;;
57107;SDS011;42987;52.916;6.542;2023-06-22T10:57:34;9.25;;;7.97;;
57107;SDS011;42987;52.916;6.542;2023-06-22T10:59:59;13.73;;;9.57;;
57107;SDS011;42987;52.916;6.542;2023-06-22T11:02:25;8.27;;;7.38;;
57107;SDS011;42987;52.916;6.542;2023-06-22T11:04:56;12.82;;;8.98;;
57107;SDS011;42987;52.916;6.542;2023-06-22T11:07:21;10.45;;;8.70;;
57107;SDS011;42987;52.916;6.542;2023-06-22T11:09:47;9.63;;;8.63;;
57107;SDS011;42987;52.916;6.542;2023-06-22T11:12:13;10.18;;;9.05;;
57107;SDS011;42987;52.916;6.542;2023-06-22T11:14:39;10.45;;;9.38;;
57107;SDS011;42987;52.916;6.542;2023-06-22T11:17:05;10.20;;;9.15;;
57107;SDS011;42987;52.916;6.542;2023-06-22T11:19:31;9.38;;;8.48;;
57107;SDS011;42987;52.916;6.542;2023-06-22T11:21:56;7.80;;;6.65;;
57107;SDS011;42987;52.916;6.542;2023-06-22T11:24:22;7.35;;;6.00;;
57107;SDS011;42987;52.916;6.542;2023-06-22T11:26:50;9.35;;;7.05;;
57107;SDS011;42987;52.916;6.542;2023-06-22T11:29:16;9.25;;;7.45;;
57107;SDS011;42987;52.916;6.542;2023-06-22T11:31:42;6.47;;;5.68;;
57107;SDS011;42987;52.916;6.542;2023-06-22T11:34:08;8.45;;;6.80;;
57107;SDS011;42987;52.916;6.542;2023-06-22T11:36:34;8.07;;;6.85;;
57107;SDS011;42987;52.916;6.542;2023-06-22T11:39:00;9.30;;;7.72;;
57107;SDS011;42987;52.916;6.542;2023-06-22T11:41:26;9.55;;;7.25;;
57107;SDS011;42987;52.916;6.542;2023-06-22T11:43:52;8.50;;;6.20;;
57107;SDS011;42987;52.916;6.542;2023-06-22T11:46:18;8.00;;;6.35;;
57107;SDS011;42987;52.916;6.542;2023-06-22T11:48:46;9.15;;;7.32;;
57107;SDS011;42987;52.916;6.542;2023-06-22T11:51:12;7.65;;;6.63;;
57107;SDS011;42987;52.916;6.542;2023-06-22T11:53:38;8.45;;;6.85;;
57107;SDS011;42987;52.916;6.542;2023-06-22T11:56:04;7.45;;;5.88;;
57107;SDS011;42987;52.916;6.542;2023-06-22T11:58:29;9.52;;;6.75;;
57107;SDS011;42987;52.916;6.542;2023-06-22T12:00:55;7.20;;;5.97;;
57107;SDS011;42987;52.916;6.542;2023-06-22T12:03:21;6.63;;;5.88;;
57107;SDS011;42987;52.916;6.542;2023-06-22T12:05:47;9.00;;;5.68;;
57107;SDS011;42987;52.916;6.542;2023-06-22T12:08:13;7.47;;;6.47;;
57107;SDS011;42987;52.916;6.542;2023-06-22T12:10:39;8.48;;;7.40;;
57107;SDS011;42987;52.916;6.542;2023-06-22T12:13:05;7.88;;;7.07;;
57107;SDS011;42987;52.916;6.542;2023-06-22T12:15:31;7.65;;;6.85;;
57107;SDS011;42987;52.916;6.542;2023-06-22T12:17:56;7.13;;;5.45;;
57107;SDS011;42987;52.916;6.542;2023-06-22T12:20:22;7.15;;;5.88;;
57107;SDS011;42987;52.916;6.542;2023-06-22T12:22:48;8.38;;;6.15;;
57107;SDS011;42987;52.916;6.542;2023-06-22T12:25:16;6.68;;;5.60;;
57107;SDS011;42987;52.916;6.542;2023-06-22T12:27:42;8.15;;;7.35;;
57107;SDS011;42987;52.916;6.542;2023-06-22T12:30:08;8.52;;;7.60;;
57107;SDS011;42987;52.916;6.542;2023-06-22T12:32:34;9.15;;;7.30;;
57107;SDS011;42987;52.916;6.542;2023-06-22T12:35:00;7.38;;;6.05;;
57107;SDS011;42987;52.916;6.542;2023-06-22T12:37:25;7.90;;;6.63;;
57107;SDS011;42987;52.916;6.542;2023-06-22T12:39:52;7.93;;;5.70;;
57107;SDS011;42987;52.916;6.542;2023-06-22T12:42:19;9.20;;;6.88;;
57107;SDS011;42987;52.916;6.542;2023-06-22T12:44:46;8.30;;;6.07;;
57107;SDS011;42987;52.916;6.542;2023-06-22T12:47:11;7.30;;;6.60;;
57107;SDS011;42987;52.916;6.542;2023-06-22T12:49:38;7.10;;;6.03;;
57107;SDS011;42987;52.916;6.542;2023-06-22T12:52:08;9.82;;;6.78;;
57107;SDS011;42987;52.916;6.542;2023-06-22T12:54:35;8.13;;;6.80;;
57107;SDS011;42987;52.916;6.542;2023-06-22T12:57:01;9.05;;;6.68;;
57107;SDS011;42987;52.916;6.542;2023-06-22T12:59:27;9.05;;;6.00;;
57107;SDS011;42987;52.916;6.542;2023-06-22T13:01:53;6.75;;;6.05;;
57107;SDS011;42987;52.916;6.542;2023-06-22T13:04:19;7.72;;;6.35;;
57107;SDS011;42987;52.916;6.542;2023-06-22T13:06:46;6.18;;;5.57;;
57107;SDS011;42987;52.916;6.542;2023-06-22T13:09:13;7.28;;;6.22;;
57107;SDS011;42987;52.916;6.542;2023-06-22T13:11:40;9.48;;;6.75;;
57107;SDS011;42987;52.916;6.542;2023-06-22T13:14:14;9.35;;;7.05;;
57107;SDS011;42987;52.916;6.542;2023-06-22T13:16:43;7.65;;;6.57;;
57107;SDS011;42987;52.916;6.542;2023-06-22T13:19:09;9.27;;;7.35;;
57107;SDS011;42987;52.916;6.542;2023-06-22T13:21:35;7.60;;;6.80;;
57107;SDS011;42987;52.916;6.542;2023-06-22T13:24:00;8.25;;;6.53;;
57107;SDS011;42987;52.916;6.542;2023-06-22T13:26:26;7.53;;;6.40;;
57107;SDS011;42987;52.916;6.542;2023-06-22T13:28:54;8.13;;;6.97;;
57107;SDS011;42987;52.916;6.542;2023-06-22T13:31:20;9.90;;;8.15;;
57107;SDS011;42987;52.916;6.542;2023-06-22T13:33:45;10.05;;;7.20;;
57107;SDS011;42987;52.916;6.542;2023-06-22T13:36:13;8.93;;;7.40;;
57107;SDS011;42987;52.916;6.542;2023-06-22T13:38:39;8.63;;;7.32;;
57107;SDS011;42987;52.916;6.542;2023-06-22T13:41:05;8.95;;;6.82;;
57107;SDS011;42987;52.916;6.542;2023-06-22T13:43:31;8.32;;;7.45;;
57107;SDS011;42987;52.916;6.542;2023-06-22T13:45:57;8.55;;;7.68;;
57107;SDS011;42987;52.916;6.542;2023-06-22T13:48:22;8.55;;;7.43;;
57107;SDS011;42987;52.916;6.542;2023-06-22T13:50:51;8.32;;;7.43;;
57107;SDS011;42987;52.916;6.542;2023-06-22T13:53:17;9.77;;;7.30;;
57107;SDS011;42987;52.916;6.542;2023-06-22T13:55:43;7.45;;;6.68;;
57107;SDS011;42987;52.916;6.542;2023-06-22T13:58:09;8.43;;;7.10;;
57107;SDS011;42987;52.916;6.542;2023-06-22T14:00:38;8.13;;;7.30;;
57107;SDS011;42987;52.916;6.542;2023-06-22T14:03:03;10.30;;;7.68;;
57107;SDS011;42987;52.916;6.542;2023-06-22T14:05:29;7.80;;;6.28;;
57107;SDS011;42987;52.916;6.542;2023-06-22T14:07:55;7.82;;;7.03;;
57107;SDS011;42987;52.916;6.542;2023-06-22T14:10:21;8.77;;;6.78;;
57107;SDS011;42987;52.916;6.542;2023-06-22T14:12:47;8.10;;;7.30;;
57107;SDS011;42987;52.916;6.542;2023-06-22T14:15:12;7.88;;;6.30;;
57107;SDS011;42987;52.916;6.542;2023-06-22T14:17:41;12.73;;;7.90;;
57107;SDS011;42987;52.916;6.542;2023-06-22T14:20:07;7.88;;;6.38;;
57107;SDS011;42987;52.916;6.542;2023-06-22T14:22:33;12.05;;;7.20;;
57107;SDS011;42987;52.916;6.542;2023-06-22T14:25:00;11.32;;;8.10;;
57107;SDS011;42987;52.916;6.542;2023-06-22T14:27:26;9.55;;;8.35;;
57107;SDS011;42987;52.916;6.542;2023-06-22T14:29:52;9.07;;;8.25;;
57107;SDS011;42987;52.916;6.542;2023-06-22T14:32:18;9.52;;;7.78;;
57107;SDS011;42987;52.916;6.542;2023-06-22T14:34:44;9.90;;;8.50;;
57107;SDS011;42987;52.916;6.542;2023-06-22T14:37:10;11.40;;;8.65;;
57107;SDS011;42987;52.916;6.542;2023-06-22T14:39:37;10.02;;;9.02;;
57107;SDS011;42987;52.916;6.542;2023-06-22T14:42:04;11.15;;;8.82;;
57107;SDS011;42987;52.916;6.542;2023-06-22T14:44:30;11.45;;;10.15;;
57107;SDS011;42987;52.916;6.542;2023-06-22T14:46:57;11.35;;;9.20;;
57107;SDS011;42987;52.916;6.542;2023-06-22T14:49:23;10.73;;;9.27;;
57107;SDS011;42987;52.916;6.542;2023-06-22T14:51:49;11.48;;;9.15;;